sensor_id;sensor_type;location;lat;lon;timestamp;pressure;altitude;pressure_sealevel;temperature;humidity
51452;BME280;37521;52.020;-1.740;2022-10-16T00:01:38;98628.78;;;7.47;100.00
51452;BME280;37521;52.020;-1.740;2022-10-16T00:04:06;98629.53;;;7.49;100.00
51452;BME280;37521;52.020;-1.740;2022-10-16T00:06:34;98637.25;;;7.52;100.00
51452;BME280;37521;52.020;-1.740;2022-10-16T00:09:03;98633.03;;;7.49;100.00
51452;BME280;37521;52.020;-1.740;2022-10-16T00:11:34;98637.34;;;7.50;100.00
51452;BME280;37521;52.020;-1.740;2022-10-16T00:14:05;98644.44;;;7.48;100.00
51452;BME280;37521;52.020;-1.740;2022-10-16T00:16:34;98663.66;;;7.49;100.00
51452;BME280;37521;52.020;-1.740;2022-10-16T00:19:04;98663.00;;;7.45;100.00
51452;BME280;37521;52.020;-1.740;2022-10-16T00:21:33;98667.41;;;7.45;100.00
51452;BME280;37521;52.020;-1.740;2022-10-16T00:24:05;98671.66;;;7.47;100.00
51452;BME280;37521;52.020;-1.740;2022-10-16T00:26:34;98659.72;;;7.57;100.00
51452;BME280;37521;52.020;-1.740;2022-10-16T00:29:03;98664.38;;;7.52;100.00
51452;BME280;37521;52.020;-1.740;2022-10-16T00:31:31;98671.31;;;7.53;100.00
51452;BME280;37521;52.020;-1.740;2022-10-16T00:33:59;98658.94;;;7.55;100.00
51452;BME280;37521;52.020;-1.740;2022-10-16T00:36:29;98670.38;;;7.54;100.00
51452;BME280;37521;52.020;-1.740;2022-10-16T00:38:59;98669.78;;;7.65;100.00
51452;BME280;37521;52.020;-1.740;2022-10-16T00:41:28;98661.38;;;7.74;100.00
51452;BME280;37521;52.020;-1.740;2022-10-16T00:43:57;98670.78;;;7.78;100.00
51452;BME280;37521;52.020;-1.740;2022-10-16T00:46:28;98664.34;;;7.84;100.00
51452;BME280;37521;52.020;-1.740;2022-10-16T00:49:00;98679.28;;;7.83;100.00
51452;BME280;37521;52.020;-1.740;2022-10-16T00:51:33;98677.59;;;7.82;100.00
51452;BME280;37521;52.020;-1.740;2022-10-16T00:54:04;98665.09;;;7.86;100.00
51452;BME280;37521;52.020;-1.740;2022-10-16T00:56:35;98679.84;;;7.88;100.00
51452;BME280;37521;52.020;-1.740;2022-10-16T00:59:07;98666.44;;;7.93;100.00
51452;BME280;37521;52.020;-1.740;2022-10-16T01:01:39;98680.28;;;7.97;100.00
51452;BME280;37521;52.020;-1.740;2022-10-16T01:04:07;98688.72;;;8.02;100.00
51452;BME280;37521;52.020;-1.740;2022-10-16T01:06:43;98694.13;;;8.14;100.00
51452;BME280;37521;52.020;-1.740;2022-10-16T01:09:17;98706.19;;;8.18;100.00
51452;BME280;37521;52.020;-1.740;2022-10-16T01:11:55;98714.22;;;8.15;100.00
51452;BME280;37521;52.020;-1.740;2022-10-16T01:14:32;98719.25;;;8.04;100.00
51452;BME280;37521;52.020;-1.740;2022-10-16T01:17:09;98740.78;;;7.95;100.00
51452;BME280;37521;52.020;-1.740;2022-10-16T01:19:54;98721.97;;;7.87;100.00
51452;BME280;37521;52.020;-1.740;2022-10-16T01:22:33;98720.97;;;7.74;100.00
51452;BME280;37521;52.020;-1.740;2022-10-16T01:25:09;98736.63;;;7.59;100.00
51452;BME280;37521;52.020;-1.740;2022-10-16T01:27:43;98733.16;;;7.43;100.00
51452;BME280;37521;52.020;-1.740;2022-10-16T01:30:18;98729.41;;;7.31;100.00
51452;BME280;37521;52.020;-1.740;2022-10-16T01:32:52;98742.94;;;7.24;100.00
51452;BME280;37521;52.020;-1.740;2022-10-16T01:35:26;98748.97;;;7.08;100.00
51452;BME280;37521;52.020;-1.740;2022-10-16T01:37:58;98747.47;;;7.04;100.00
51452;BME280;37521;52.020;-1.740;2022-10-16T01:40:29;98751.16;;;7.00;100.00
51452;BME280;37521;52.020;-1.740;2022-10-16T01:43:05;98752.84;;;7.01;100.00
51452;BME280;37521;52.020;-1.740;2022-10-16T01:45:36;98756.50;;;6.99;100.00
51452;BME280;37521;52.020;-1.740;2022-10-16T01:48:06;98751.66;;;6.91;100.00
51452;BME280;37521;52.020;-1.740;2022-10-16T01:50:38;98752.81;;;6.86;100.00
51452;BME280;37521;52.020;-1.740;2022-10-16T01:53:11;98754.72;;;6.82;100.00
51452;BME280;37521;52.020;-1.740;2022-10-16T01:55:43;98746.19;;;6.78;100.00
51452;BME280;37521;52.020;-1.740;2022-10-16T01:58:15;98750.50;;;6.79;100.00
51452;BME280;37521;52.020;-1.740;2022-10-16T02:00:44;98747.09;;;6.77;100.00
51452;BME280;37521;52.020;-1.740;2022-10-16T02:03:16;98748.56;;;6.83;100.00
51452;BME280;37521;52.020;-1.740;2022-10-16T02:05:47;98762.81;;;6.95;100.00
51452;BME280;37521;52.020;-1.740;2022-10-16T02:08:17;98749.16;;;7.05;100.00
51452;BME280;37521;52.020;-1.740;2022-10-16T02:10:45;98758.41;;;7.13;100.00
51452;BME280;37521;52.020;-1.740;2022-10-16T02:13:18;98763.34;;;7.19;100.00
51452;BME280;37521;52.020;-1.740;2022-10-16T02:15:49;98774.59;;;7.21;100.00
51452;BME280;37521;52.020;-1.740;2022-10-16T02:18:20;98800.69;;;7.24;100.00
51452;BME280;37521;52.020;-1.740;2022-10-16T02:20:52;98806.63;;;7.27;100.00
51452;BME280;37521;52.020;-1.740;2022-10-16T02:23:26;98807.41;;;7.29;100.00
51452;BME280;37521;52.020;-1.740;2022-10-16T02:25:58;98801.38;;;7.27;100.00
51452;BME280;37521;52.020;-1.740;2022-10-16T02:28:35;98816.28;;;7.27;100.00
51452;BME280;37521;52.020;-1.740;2022-10-16T02:31:09;98832.13;;;7.25;100.00
51452;BME280;37521;52.020;-1.740;2022-10-16T02:33:40;98803.31;;;7.24;100.00
51452;BME280;37521;52.020;-1.740;2022-10-16T02:36:11;98824.56;;;7.19;100.00
51452;BME280;37521;52.020;-1.740;2022-10-16T02:38:39;98816.59;;;7.21;100.00
51452;BME280;37521;52.020;-1.740;2022-10-16T02:41:08;98817.53;;;7.20;100.00
51452;BME280;37521;52.020;-1.740;2022-10-16T02:43:38;98812.69;;;7.12;100.00
51452;BME280;37521;52.020;-1.740;2022-10-16T02:46:06;98814.00;;;7.03;100.00
51452;BME280;37521;52.020;-1.740;2022-10-16T02:48:35;98824.34;;;7.06;100.00
51452;BME280;37521;52.020;-1.740;2022-10-16T02:51:03;98826.97;;;7.06;100.00
51452;BME280;37521;52.020;-1.740;2022-10-16T02:53:31;98824.66;;;7.00;100.00
51452;BME280;37521;52.020;-1.740;2022-10-16T02:55:59;98834.47;;;6.97;100.00
51452;BME280;37521;52.020;-1.740;2022-10-16T02:58:27;98837.00;;;6.98;100.00
51452;BME280;37521;52.020;-1.740;2022-10-16T03:00:57;98835.00;;;7.03;100.00
51452;BME280;37521;52.020;-1.740;2022-10-16T03:03:25;98837.47;;;7.06;100.00
51452;BME280;37521;52.020;-1.740;2022-10-16T03:05:53;98852.28;;;7.07;100.00
51452;BME280;37521;52.020;-1.740;2022-10-16T03:08:22;98853.97;;;7.08;100.00
51452;BME280;37521;52.020;-1.740;2022-10-16T03:10:51;98849.59;;;7.09;100.00
51452;BME280;37521;52.020;-1.740;2022-10-16T03:13:20;98853.13;;;7.08;100.00
51452;BME280;37521;52.020;-1.740;2022-10-16T03:15:48;98861.25;;;7.03;100.00
51452;BME280;37521;52.020;-1.740;2022-10-16T03:18:18;98864.09;;;6.99;100.00
51452;BME280;37521;52.020;-1.740;2022-10-16T03:20:46;98858.31;;;6.92;100.00
51452;BME280;37521;52.020;-1.740;2022-10-16T03:23:14;98863.72;;;6.89;100.00
51452;BME280;37521;52.020;-1.740;2022-10-16T03:25:42;98870.97;;;6.84;100.00
51452;BME280;37521;52.020;-1.740;2022-10-16T03:28:13;98869.25;;;6.83;100.00
51452;BME280;37521;52.020;-1.740;2022-10-16T03:30:42;98872.94;;;6.79;100.00
51452;BME280;37521;52.020;-1.740;2022-10-16T03:33:10;98870.41;;;6.77;100.00
51452;BME280;37521;52.020;-1.740;2022-10-16T03:35:40;98880.06;;;6.77;100.00
51452;BME280;37521;52.020;-1.740;2022-10-16T03:38:08;98889.44;;;6.81;100.00
51452;BME280;37521;52.020;-1.740;2022-10-16T03:40:36;98883.28;;;6.82;100.00
51452;BME280;37521;52.020;-1.740;2022-10-16T03:43:04;98896.41;;;6.82;100.00
51452;BME280;37521;52.020;-1.740;2022-10-16T03:45:33;98894.03;;;6.77;100.00
51452;BME280;37521;52.020;-1.740;2022-10-16T03:48:01;98895.50;;;6.83;100.00
51452;BME280;37521;52.020;-1.740;2022-10-16T03:50:30;98898.59;;;6.91;100.00
51452;BME280;37521;52.020;-1.740;2022-10-16T03:52:59;98909.72;;;6.96;100.00
51452;BME280;37521;52.020;-1.740;2022-10-16T03:55:28;98902.53;;;7.00;100.00
51452;BME280;37521;52.020;-1.740;2022-10-16T03:57:56;98920.06;;;6.99;100.00
51452;BME280;37521;52.020;-1.740;2022-10-16T04:00:24;98915.72;;;6.98;100.00
51452;BME280;37521;52.020;-1.740;2022-10-16T04:02:52;98914.72;;;7.01;100.00
51452;BME280;37521;52.020;-1.740;2022-10-16T04:05:20;98922.53;;;7.02;100.00
51452;BME280;37521;52.020;-1.740;2022-10-16T04:07:48;98934.03;;;7.00;100.00
51452;BME280;37521;52.020;-1.740;2022-10-16T04:10:18;98937.50;;;7.00;100.00
51452;BME280;37521;52.020;-1.740;2022-10-16T04:12:46;98947.91;;;7.02;100.00
51452;BME280;37521;52.020;-1.740;2022-10-16T04:15:15;98948.22;;;6.96;100.00
51452;BME280;37521;52.020;-1.740;2022-10-16T04:17:43;98958.00;;;6.92;100.00
51452;BME280;37521;52.020;-1.740;2022-10-16T04:20:11;98958.19;;;6.89;100.00
51452;BME280;37521;52.020;-1.740;2022-10-16T04:22:40;98963.56;;;6.86;100.00
51452;BME280;37521;52.020;-1.740;2022-10-16T04:25:08;98969.66;;;6.87;100.00
51452;BME280;37521;52.020;-1.740;2022-10-16T04:27:39;98977.44;;;6.88;100.00
51452;BME280;37521;52.020;-1.740;2022-10-16T04:30:12;98993.19;;;6.88;100.00
51452;BME280;37521;52.020;-1.740;2022-10-16T04:32:40;98999.66;;;6.81;100.00
51452;BME280;37521;52.020;-1.740;2022-10-16T04:35:09;98993.91;;;6.73;100.00
51452;BME280;37521;52.020;-1.740;2022-10-16T04:37:37;98988.94;;;6.67;100.00
51452;BME280;37521;52.020;-1.740;2022-10-16T04:40:05;98989.88;;;6.66;100.00
51452;BME280;37521;52.020;-1.740;2022-10-16T04:42:34;98983.00;;;6.63;100.00
51452;BME280;37521;52.020;-1.740;2022-10-16T04:45:04;99008.53;;;6.60;100.00
51452;BME280;37521;52.020;-1.740;2022-10-16T04:47:32;99007.81;;;6.56;100.00
51452;BME280;37521;52.020;-1.740;2022-10-16T04:50:00;99019.53;;;6.49;100.00
51452;BME280;37521;52.020;-1.740;2022-10-16T04:52:29;99019.56;;;6.47;100.00
51452;BME280;37521;52.020;-1.740;2022-10-16T04:54:58;99026.81;;;6.42;100.00
51452;BME280;37521;52.020;-1.740;2022-10-16T04:57:29;99040.81;;;6.41;100.00
51452;BME280;37521;52.020;-1.740;2022-10-16T04:59:57;99040.97;;;6.38;100.00
51452;BME280;37521;52.020;-1.740;2022-10-16T05:02:27;99041.97;;;6.36;100.00
51452;BME280;37521;52.020;-1.740;2022-10-16T05:04:55;99054.28;;;6.34;100.00
51452;BME280;37521;52.020;-1.740;2022-10-16T05:07:23;99057.13;;;6.29;100.00
51452;BME280;37521;52.020;-1.740;2022-10-16T05:09:52;99061.63;;;6.25;100.00
51452;BME280;37521;52.020;-1.740;2022-10-16T05:12:20;99067.88;;;6.23;100.00
51452;BME280;37521;52.020;-1.740;2022-10-16T05:14:48;99066.28;;;6.19;100.00
51452;BME280;37521;52.020;-1.740;2022-10-16T05:17:16;99068.91;;;6.19;100.00
51452;BME280;37521;52.020;-1.740;2022-10-16T05:19:46;99067.97;;;6.20;100.00
51452;BME280;37521;52.020;-1.740;2022-10-16T05:22:14;99072.25;;;6.22;100.00
51452;BME280;37521;52.020;-1.740;2022-10-16T05:24:42;99073.97;;;6.23;100.00
51452;BME280;37521;52.020;-1.740;2022-10-16T05:27:10;99088.00;;;6.22;100.00
51452;BME280;37521;52.020;-1.740;2022-10-16T05:29:45;99093.41;;;6.18;100.00
51452;BME280;37521;52.020;-1.740;2022-10-16T05:32:15;99097.03;;;6.15;100.00
51452;BME280;37521;52.020;-1.740;2022-10-16T05:34:45;99106.78;;;6.12;100.00
51452;BME280;37521;52.020;-1.740;2022-10-16T05:37:14;99108.75;;;6.07;100.00
51452;BME280;37521;52.020;-1.740;2022-10-16T05:39:42;99101.09;;;6.02;100.00
51452;BME280;37521;52.020;-1.740;2022-10-16T05:42:10;99103.81;;;5.99;100.00
51452;BME280;37521;52.020;-1.740;2022-10-16T05:44:38;99107.47;;;5.95;100.00
51452;BME280;37521;52.020;-1.740;2022-10-16T05:47:07;99105.16;;;5.87;100.00
51452;BME280;37521;52.020;-1.740;2022-10-16T05:49:35;99101.91;;;5.82;100.00
51452;BME280;37521;52.020;-1.740;2022-10-16T05:52:08;99110.78;;;5.78;100.00
51452;BME280;37521;52.020;-1.740;2022-10-16T05:54:36;99115.34;;;5.73;100.00
51452;BME280;37521;52.020;-1.740;2022-10-16T05:57:04;99123.41;;;5.68;100.00
51452;BME280;37521;52.020;-1.740;2022-10-16T05:59:33;99140.22;;;5.63;100.00
51452;BME280;37521;52.020;-1.740;2022-10-16T06:02:01;99139.63;;;5.56;100.00
51452;BME280;37521;52.020;-1.740;2022-10-16T06:04:29;99157.25;;;5.51;100.00
51452;BME280;37521;52.020;-1.740;2022-10-16T06:06:58;99160.06;;;5.46;100.00
51452;BME280;37521;52.020;-1.740;2022-10-16T06:09:29;99156.88;;;5.38;100.00
51452;BME280;37521;52.020;-1.740;2022-10-16T06:11:57;99160.53;;;5.34;100.00
51452;BME280;37521;52.020;-1.740;2022-10-16T06:14:26;99171.13;;;5.31;100.00
51452;BME280;37521;52.020;-1.740;2022-10-16T06:16:54;99175.63;;;5.28;100.00
51452;BME280;37521;52.020;-1.740;2022-10-16T06:19:22;99184.44;;;5.25;100.00
51452;BME280;37521;52.020;-1.740;2022-10-16T06:21:51;99184.50;;;5.24;100.00
51452;BME280;37521;52.020;-1.740;2022-10-16T06:24:19;99182.06;;;5.19;100.00
51452;BME280;37521;52.020;-1.740;2022-10-16T06:26:49;99183.88;;;5.17;100.00
51452;BME280;37521;52.020;-1.740;2022-10-16T06:29:17;99182.69;;;5.26;100.00
51452;BME280;37521;52.020;-1.740;2022-10-16T06:31:45;99190.38;;;5.30;100.00
51452;BME280;37521;52.020;-1.740;2022-10-16T06:34:13;99190.38;;;5.30;100.00
51452;BME280;37521;52.020;-1.740;2022-10-16T06:36:41;99200.63;;;5.35;100.00
51452;BME280;37521;52.020;-1.740;2022-10-16T06:39:10;99198.78;;;5.38;100.00
51452;BME280;37521;52.020;-1.740;2022-10-16T06:41:38;99200.38;;;5.42;100.00
51452;BME280;37521;52.020;-1.740;2022-10-16T06:44:15;99203.78;;;5.44;100.00
51452;BME280;37521;52.020;-1.740;2022-10-16T06:46:44;99208.88;;;5.47;100.00
51452;BME280;37521;52.020;-1.740;2022-10-16T06:49:12;99205.38;;;5.49;100.00
51452;BME280;37521;52.020;-1.740;2022-10-16T06:51:42;99217.56;;;5.50;100.00
51452;BME280;37521;52.020;-1.740;2022-10-16T06:54:10;99214.03;;;5.51;100.00
51452;BME280;37521;52.020;-1.740;2022-10-16T06:56:38;99215.03;;;5.46;100.00
51452;BME280;37521;52.020;-1.740;2022-10-16T06:59:07;99220.41;;;5.43;100.00
51452;BME280;37521;52.020;-1.740;2022-10-16T07:01:36;99222.16;;;5.43;100.00
51452;BME280;37521;52.020;-1.740;2022-10-16T07:04:04;99215.94;;;5.45;100.00
51452;BME280;37521;52.020;-1.740;2022-10-16T07:06:33;99226.31;;;5.49;100.00
51452;BME280;37521;52.020;-1.740;2022-10-16T07:09:05;99231.44;;;5.52;100.00
51452;BME280;37521;52.020;-1.740;2022-10-16T07:11:34;99231.28;;;5.55;100.00
51452;BME280;37521;52.020;-1.740;2022-10-16T07:14:03;99241.59;;;5.59;100.00
51452;BME280;37521;52.020;-1.740;2022-10-16T07:16:32;99254.63;;;5.61;100.00
51452;BME280;37521;52.020;-1.740;2022-10-16T07:19:02;99252.06;;;5.59;100.00
51452;BME280;37521;52.020;-1.740;2022-10-16T07:21:32;99245.31;;;5.54;100.00
51452;BME280;37521;52.020;-1.740;2022-10-16T07:24:04;99259.47;;;5.48;100.00
51452;BME280;37521;52.020;-1.740;2022-10-16T07:26:35;99258.59;;;5.49;100.00
51452;BME280;37521;52.020;-1.740;2022-10-16T07:29:03;99262.06;;;5.50;100.00
51452;BME280;37521;52.020;-1.740;2022-10-16T07:31:32;99273.53;;;5.45;100.00
51452;BME280;37521;52.020;-1.740;2022-10-16T07:34:01;99284.16;;;5.42;100.00
51452;BME280;37521;52.020;-1.740;2022-10-16T07:36:30;99300.81;;;5.40;100.00
51452;BME280;37521;52.020;-1.740;2022-10-16T07:38:58;99313.72;;;5.44;100.00
51452;BME280;37521;52.020;-1.740;2022-10-16T07:41:27;99310.75;;;5.54;100.00
51452;BME280;37521;52.020;-1.740;2022-10-16T07:43:55;99316.91;;;5.53;100.00
51452;BME280;37521;52.020;-1.740;2022-10-16T07:46:27;99321.59;;;5.44;100.00
51452;BME280;37521;52.020;-1.740;2022-10-16T07:48:56;99324.09;;;5.47;100.00
51452;BME280;37521;52.020;-1.740;2022-10-16T07:51:26;99331.69;;;5.55;100.00
51452;BME280;37521;52.020;-1.740;2022-10-16T07:53:55;99341.91;;;5.61;100.00
51452;BME280;37521;52.020;-1.740;2022-10-16T07:56:23;99340.97;;;5.64;100.00
51452;BME280;37521;52.020;-1.740;2022-10-16T07:58:52;99348.03;;;5.62;100.00
51452;BME280;37521;52.020;-1.740;2022-10-16T08:01:21;99340.38;;;5.56;100.00
51452;BME280;37521;52.020;-1.740;2022-10-16T08:03:50;99344.94;;;5.51;100.00
51452;BME280;37521;52.020;-1.740;2022-10-16T08:06:21;99350.25;;;5.47;100.00
51452;BME280;37521;52.020;-1.740;2022-10-16T08:08:57;99346.56;;;5.53;100.00
51452;BME280;37521;52.020;-1.740;2022-10-16T08:11:26;99351.72;;;5.56;100.00
51452;BME280;37521;52.020;-1.740;2022-10-16T08:13:54;99369.06;;;5.59;100.00
51452;BME280;37521;52.020;-1.740;2022-10-16T08:16:23;99373.44;;;5.58;100.00
51452;BME280;37521;52.020;-1.740;2022-10-16T08:18:52;99363.97;;;5.56;100.00
51452;BME280;37521;52.020;-1.740;2022-10-16T08:21:22;99376.22;;;5.54;100.00
51452;BME280;37521;52.020;-1.740;2022-10-16T08:23:52;99380.56;;;5.55;100.00
51452;BME280;37521;52.020;-1.740;2022-10-16T08:26:26;99374.31;;;5.59;100.00
51452;BME280;37521;52.020;-1.740;2022-10-16T08:28:55;99375.91;;;5.63;100.00
51452;BME280;37521;52.020;-1.740;2022-10-16T08:31:23;99380.97;;;5.67;100.00
51452;BME280;37521;52.020;-1.740;2022-10-16T08:33:53;99393.13;;;5.70;100.00
51452;BME280;37521;52.020;-1.740;2022-10-16T08:36:21;99387.75;;;5.73;100.00
51452;BME280;37521;52.020;-1.740;2022-10-16T08:38:50;99397.28;;;5.76;100.00
51452;BME280;37521;52.020;-1.740;2022-10-16T08:41:41;99405.66;;;5.85;100.00
51452;BME280;37521;52.020;-1.740;2022-10-16T08:47:14;99405.47;;;5.91;100.00
51452;BME280;37521;52.020;-1.740;2022-10-16T08:49:55;99410.50;;;6.19;100.00
51452;BME280;37521;52.020;-1.740;2022-10-16T08:52:27;99404.03;;;6.30;100.00
51452;BME280;37521;52.020;-1.740;2022-10-16T08:54:58;99404.63;;;6.36;100.00
51452;BME280;37521;52.020;-1.740;2022-10-16T08:57:27;99406.09;;;6.43;100.00
51452;BME280;37521;52.020;-1.740;2022-10-16T09:00:00;99408.31;;;6.76;100.00
51452;BME280;37521;52.020;-1.740;2022-10-16T09:02:37;99403.84;;;6.78;100.00
51452;BME280;37521;52.020;-1.740;2022-10-16T09:05:30;99409.44;;;6.91;100.00
51452;BME280;37521;52.020;-1.740;2022-10-16T09:08:09;99416.88;;;7.01;100.00
51452;BME280;37521;52.020;-1.740;2022-10-16T09:10:48;99416.63;;;7.07;100.00
51452;BME280;37521;52.020;-1.740;2022-10-16T09:13:27;99421.69;;;7.12;100.00
51452;BME280;37521;52.020;-1.740;2022-10-16T09:16:07;99422.72;;;7.28;100.00
51452;BME280;37521;52.020;-1.740;2022-10-16T09:18:42;99423.72;;;7.46;100.00
51452;BME280;37521;52.020;-1.740;2022-10-16T09:21:18;99429.38;;;7.57;100.00
51452;BME280;37521;52.020;-1.740;2022-10-16T09:23:47;99429.50;;;7.75;100.00
51452;BME280;37521;52.020;-1.740;2022-10-16T09:26:16;99436.56;;;7.93;100.00
51452;BME280;37521;52.020;-1.740;2022-10-16T09:28:47;99427.09;;;8.09;100.00
51452;BME280;37521;52.020;-1.740;2022-10-16T09:31:17;99432.22;;;8.31;100.00
51452;BME280;37521;52.020;-1.740;2022-10-16T09:33:50;99430.25;;;8.36;100.00
51452;BME280;37521;52.020;-1.740;2022-10-16T09:36:20;99424.84;;;8.39;100.00
51452;BME280;37521;52.020;-1.740;2022-10-16T09:38:49;99434.06;;;8.48;100.00
51452;BME280;37521;52.020;-1.740;2022-10-16T09:41:22;99429.81;;;8.64;100.00
51452;BME280;37521;52.020;-1.740;2022-10-16T09:43:55;99423.97;;;8.77;100.00
51452;BME280;37521;52.020;-1.740;2022-10-16T09:46:27;99440.31;;;8.83;100.00
51452;BME280;37521;52.020;-1.740;2022-10-16T09:48:57;99432.97;;;9.07;100.00
51452;BME280;37521;52.020;-1.740;2022-10-16T09:51:28;99441.75;;;9.25;100.00
51452;BME280;37521;52.020;-1.740;2022-10-16T09:53:58;99454.63;;;9.31;100.00
51452;BME280;37521;52.020;-1.740;2022-10-16T09:56:28;99448.81;;;9.42;100.00
51452;BME280;37521;52.020;-1.740;2022-10-16T09:59:00;99449.88;;;9.55;100.00
51452;BME280;37521;52.020;-1.740;2022-10-16T10:01:31;99454.38;;;9.53;100.00
51452;BME280;37521;52.020;-1.740;2022-10-16T10:04:05;99446.78;;;9.47;100.00
51452;BME280;37521;52.020;-1.740;2022-10-16T10:06:35;99454.16;;;9.58;100.00
51452;BME280;37521;52.020;-1.740;2022-10-16T10:09:15;99449.03;;;9.54;100.00
51452;BME280;37521;52.020;-1.740;2022-10-16T10:11:48;99441.22;;;9.53;100.00
51452;BME280;37521;52.020;-1.740;2022-10-16T10:14:23;99444.38;;;9.60;100.00
51452;BME280;37521;52.020;-1.740;2022-10-16T10:17:01;99445.88;;;9.65;100.00
51452;BME280;37521;52.020;-1.740;2022-10-16T10:19:36;99441.44;;;9.66;100.00
51452;BME280;37521;52.020;-1.740;2022-10-16T10:22:15;99451.81;;;9.69;100.00
51452;BME280;37521;52.020;-1.740;2022-10-16T10:24:46;99459.34;;;9.76;100.00
51452;BME280;37521;52.020;-1.740;2022-10-16T10:27:27;99453.88;;;9.97;100.00
51452;BME280;37521;52.020;-1.740;2022-10-16T10:30:01;99465.56;;;10.08;100.00
51452;BME280;37521;52.020;-1.740;2022-10-16T10:32:36;99463.28;;;10.18;100.00
51452;BME280;37521;52.020;-1.740;2022-10-16T10:35:15;99452.97;;;10.14;100.00
51452;BME280;37521;52.020;-1.740;2022-10-16T10:37:55;99455.78;;;10.10;100.00
51452;BME280;37521;52.020;-1.740;2022-10-16T10:40:37;99460.88;;;9.98;100.00
51452;BME280;37521;52.020;-1.740;2022-10-16T10:43:16;99458.91;;;10.01;100.00
51452;BME280;37521;52.020;-1.740;2022-10-16T10:45:52;99455.09;;;10.07;100.00
51452;BME280;37521;52.020;-1.740;2022-10-16T10:48:32;99446.31;;;10.06;100.00
51452;BME280;37521;52.020;-1.740;2022-10-16T10:51:18;99463.19;;;10.04;100.00
51452;BME280;37521;52.020;-1.740;2022-10-16T10:53:55;99462.06;;;10.08;100.00
51452;BME280;37521;52.020;-1.740;2022-10-16T10:56:42;99467.44;;;10.22;100.00
51452;BME280;37521;52.020;-1.740;2022-10-16T10:59:22;99459.97;;;10.48;100.00
51452;BME280;37521;52.020;-1.740;2022-10-16T11:01:56;99449.81;;;10.87;100.00
51452;BME280;37521;52.020;-1.740;2022-10-16T11:04:38;99447.16;;;11.19;100.00
51452;BME280;37521;52.020;-1.740;2022-10-16T11:07:16;99452.25;;;11.52;100.00
51452;BME280;37521;52.020;-1.740;2022-10-16T11:09:48;99450.00;;;11.90;100.00
51452;BME280;37521;52.020;-1.740;2022-10-16T11:12:21;99446.09;;;11.96;100.00
51452;BME280;37521;52.020;-1.740;2022-10-16T11:14:56;99440.66;;;11.99;100.00
51452;BME280;37521;52.020;-1.740;2022-10-16T11:17:31;99445.38;;;12.08;100.00
51452;BME280;37521;52.020;-1.740;2022-10-16T11:20:05;99442.81;;;12.07;100.00
51452;BME280;37521;52.020;-1.740;2022-10-16T11:22:42;99436.00;;;12.17;100.00
51452;BME280;37521;52.020;-1.740;2022-10-16T11:25:16;99421.06;;;12.30;100.00
51452;BME280;37521;52.020;-1.740;2022-10-16T11:27:50;99418.63;;;12.27;100.00
51452;BME280;37521;52.020;-1.740;2022-10-16T11:30:22;99413.44;;;12.11;100.00
51452;BME280;37521;52.020;-1.740;2022-10-16T11:33:10;99422.28;;;11.82;100.00
51452;BME280;37521;52.020;-1.740;2022-10-16T11:35:46;99426.91;;;11.78;100.00
51452;BME280;37521;52.020;-1.740;2022-10-16T11:38:29;99433.94;;;12.08;100.00
51452;BME280;37521;52.020;-1.740;2022-10-16T11:41:03;99444.13;;;12.14;100.00
51452;BME280;37521;52.020;-1.740;2022-10-16T11:43:38;99437.16;;;12.13;100.00
51452;BME280;37521;52.020;-1.740;2022-10-16T11:46:12;99425.59;;;12.42;100.00
51452;BME280;37521;52.020;-1.740;2022-10-16T11:48:46;99420.69;;;12.50;100.00
51452;BME280;37521;52.020;-1.740;2022-10-16T11:51:23;99420.47;;;12.53;100.00
51452;BME280;37521;52.020;-1.740;2022-10-16T11:53:56;99420.69;;;12.50;100.00
51452;BME280;37521;52.020;-1.740;2022-10-16T11:56:29;99418.19;;;12.47;100.00
51452;BME280;37521;52.020;-1.740;2022-10-16T11:59:02;99412.16;;;12.45;100.00
51452;BME280;37521;52.020;-1.740;2022-10-16T12:01:37;99407.00;;;12.57;100.00
51452;BME280;37521;52.020;-1.740;2022-10-16T12:04:19;99411.97;;;12.75;100.00
51452;BME280;37521;52.020;-1.740;2022-10-16T12:06:52;99411.38;;;12.58;100.00
51452;BME280;37521;52.020;-1.740;2022-10-16T12:09:26;99413.56;;;12.37;100.00
51452;BME280;37521;52.020;-1.740;2022-10-16T12:11:55;99417.28;;;12.20;100.00
51452;BME280;37521;52.020;-1.740;2022-10-16T12:14:42;99415.38;;;12.50;100.00
51452;BME280;37521;52.020;-1.740;2022-10-16T12:17:35;99413.69;;;12.76;100.00
51452;BME280;37521;52.020;-1.740;2022-10-16T12:20:21;99410.91;;;12.92;100.00
51452;BME280;37521;52.020;-1.740;2022-10-16T12:22:52;99408.69;;;12.99;100.00
51452;BME280;37521;52.020;-1.740;2022-10-16T12:25:25;99418.78;;;13.06;100.00
51452;BME280;37521;52.020;-1.740;2022-10-16T12:27:57;99405.09;;;13.00;100.00
51452;BME280;37521;52.020;-1.740;2022-10-16T12:30:27;99418.44;;;12.71;100.00
51452;BME280;37521;52.020;-1.740;2022-10-16T12:33:03;99422.50;;;12.63;100.00
51452;BME280;37521;52.020;-1.740;2022-10-16T12:35:35;99415.09;;;12.82;100.00
51452;BME280;37521;52.020;-1.740;2022-10-16T12:38:16;99417.03;;;12.66;100.00
51452;BME280;37521;52.020;-1.740;2022-10-16T12:40:53;99419.94;;;12.34;100.00
51452;BME280;37521;52.020;-1.740;2022-10-16T12:43:28;99420.81;;;12.06;100.00
51452;BME280;37521;52.020;-1.740;2022-10-16T12:46:01;99411.41;;;12.29;100.00
51452;BME280;37521;52.020;-1.740;2022-10-16T12:48:30;99408.69;;;12.99;100.00
51452;BME280;37521;52.020;-1.740;2022-10-16T12:51:33;99405.34;;;13.62;100.00
51452;BME280;37521;52.020;-1.740;2022-10-16T12:54:02;99396.44;;;13.76;100.00
51452;BME280;37521;52.020;-1.740;2022-10-16T12:56:41;99404.28;;;13.90;100.00
51452;BME280;37521;52.020;-1.740;2022-10-16T12:59:21;99395.81;;;13.59;100.00
51452;BME280;37521;52.020;-1.740;2022-10-16T13:02:05;99401.78;;;12.96;100.00
51452;BME280;37521;52.020;-1.740;2022-10-16T13:04:46;99401.81;;;12.55;100.00
51452;BME280;37521;52.020;-1.740;2022-10-16T13:07:35;99400.19;;;12.25;100.00
51452;BME280;37521;52.020;-1.740;2022-10-16T13:10:15;99398.00;;;12.32;100.00
51452;BME280;37521;52.020;-1.740;2022-10-16T13:13:02;99375.69;;;12.63;100.00
51452;BME280;37521;52.020;-1.740;2022-10-16T13:15:45;99371.50;;;13.00;100.00